sensor_id;sensor_type;location;lat;lon;timestamp;pressure;altitude;pressure_sealevel;temperature;humidity
51986;BME280;38002;53.296;6.600;2023-04-21T00:04:26;102112.41;;;7.96;87.13
51986;BME280;38002;53.296;6.600;2023-04-21T00:09:27;102102.91;;;7.90;87.01
51986;BME280;38002;53.296;6.600;2023-04-21T00:14:27;102096.00;;;7.86;86.61
51986;BME280;38002;53.296;6.600;2023-04-21T00:19:27;102093.00;;;7.78;86.46
51986;BME280;38002;53.296;6.600;2023-04-21T00:24:29;102080.44;;;7.77;86.40
51986;BME280;38002;53.296;6.600;2023-04-21T00:29:30;102070.16;;;7.69;86.65
51986;BME280;38002;53.296;6.600;2023-04-21T00:34:30;102061.53;;;7.64;86.76
51986;BME280;38002;53.296;6.600;2023-04-21T00:39:31;102060.03;;;7.60;86.61
51986;BME280;38002;53.296;6.600;2023-04-21T00:44:31;102055.72;;;7.58;86.94
51986;BME280;38002;53.296;6.600;2023-04-21T00:49:32;102049.78;;;7.53;86.77
51986;BME280;38002;53.296;6.600;2023-04-21T00:54:34;102048.16;;;7.50;86.79
51986;BME280;38002;53.296;6.600;2023-04-21T00:59:35;102043.97;;;7.46;87.24
51986;BME280;38002;53.296;6.600;2023-04-21T01:04:35;102047.75;;;7.44;87.28
51986;BME280;38002;53.296;6.600;2023-04-21T01:09:38;102040.81;;;7.40;87.24
51986;BME280;38002;53.296;6.600;2023-04-21T01:14:40;102039.00;;;7.40;87.09
51986;BME280;38002;53.296;6.600;2023-04-21T01:19:41;102028.41;;;7.37;87.73
51986;BME280;38002;53.296;6.600;2023-04-21T01:24:44;102032.19;;;7.35;88.64
51986;BME280;38002;53.296;6.600;2023-04-21T01:29:46;102027.88;;;7.32;88.21
51986;BME280;38002;53.296;6.600;2023-04-21T01:34:48;102020.00;;;7.29;88.39
51986;BME280;38002;53.296;6.600;2023-04-21T01:39:52;102020.19;;;7.26;88.51
51986;BME280;38002;53.296;6.600;2023-04-21T01:44:53;102008.75;;;7.22;88.62
51986;BME280;38002;53.296;6.600;2023-04-21T01:49:54;102001.81;;;7.18;88.44
51986;BME280;38002;53.296;6.600;2023-04-21T01:54:54;102004.53;;;7.18;89.84
51986;BME280;38002;53.296;6.600;2023-04-21T01:59:55;102007.34;;;7.17;88.51
51986;BME280;38002;53.296;6.600;2023-04-21T02:04:55;101997.63;;;7.14;88.57
51986;BME280;38002;53.296;6.600;2023-04-21T02:09:56;101994.91;;;7.14;88.32
51986;BME280;38002;53.296;6.600;2023-04-21T02:14:56;101992.44;;;7.11;88.39
51986;BME280;38002;53.296;6.600;2023-04-21T02:19:57;102001.53;;;7.10;88.80
51986;BME280;38002;53.296;6.600;2023-04-21T02:24:57;101996.22;;;7.09;88.55
51986;BME280;38002;53.296;6.600;2023-04-21T02:29:57;101994.47;;;7.08;89.42
51986;BME280;38002;53.296;6.600;2023-04-21T02:34:58;101988.97;;;7.09;89.71
51986;BME280;38002;53.296;6.600;2023-04-21T02:39:58;101981.09;;;7.06;89.21
51986;BME280;38002;53.296;6.600;2023-04-21T02:44:59;101986.28;;;7.09;89.41
51986;BME280;38002;53.296;6.600;2023-04-21T02:50:00;101988.25;;;7.07;89.07
51986;BME280;38002;53.296;6.600;2023-04-21T02:55:00;101978.59;;;7.03;89.48
51986;BME280;38002;53.296;6.600;2023-04-21T03:00:01;101989.22;;;7.06;89.77
51986;BME280;38002;53.296;6.600;2023-04-21T03:05:01;101988.44;;;7.04;89.62
51986;BME280;38002;53.296;6.600;2023-04-21T03:10:04;101992.97;;;7.04;89.58
51986;BME280;38002;53.296;6.600;2023-04-21T03:15:05;101991.28;;;7.03;89.57
51986;BME280;38002;53.296;6.600;2023-04-21T03:20:07;101990.41;;;7.02;89.09
51986;BME280;38002;53.296;6.600;2023-04-21T03:25:08;101995.81;;;7.02;89.58
51986;BME280;38002;53.296;6.600;2023-04-21T03:30:08;101988.91;;;6.98;89.62
51986;BME280;38002;53.296;6.600;2023-04-21T03:35:09;101989.88;;;6.97;90.07
51986;BME280;38002;53.296;6.600;2023-04-21T03:40:10;101983.69;;;6.95;89.79
51986;BME280;38002;53.296;6.600;2023-04-21T03:45:10;101980.88;;;6.97;89.27
51986;BME280;38002;53.296;6.600;2023-04-21T03:50:11;101980.03;;;6.96;88.90
51986;BME280;38002;53.296;6.600;2023-04-21T03:55:11;101990.84;;;6.96;89.40
51986;BME280;38002;53.296;6.600;2023-04-21T04:00:12;101991.06;;;6.93;90.04
51986;BME280;38002;53.296;6.600;2023-04-21T04:05:13;101985.75;;;6.92;90.29
51986;BME280;38002;53.296;6.600;2023-04-21T04:10:13;101975.09;;;6.90;89.31
51986;BME280;38002;53.296;6.600;2023-04-21T04:15:14;101977.00;;;6.88;89.51
51986;BME280;38002;53.296;6.600;2023-04-21T04:20:14;101972.56;;;6.87;89.46
51986;BME280;38002;53.296;6.600;2023-04-21T04:25:15;101979.81;;;6.87;89.43
51986;BME280;38002;53.296;6.600;2023-04-21T04:30:16;101961.91;;;6.86;89.89
51986;BME280;38002;53.296;6.600;2023-04-21T04:35:16;101970.09;;;6.84;89.95
51986;BME280;38002;53.296;6.600;2023-04-21T04:40:17;101964.78;;;6.82;90.34
51986;BME280;38002;53.296;6.600;2023-04-21T04:45:18;101954.13;;;6.81;90.31
51986;BME280;38002;53.296;6.600;2023-04-21T04:50:20;101959.53;;;6.81;90.47
51986;BME280;38002;53.296;6.600;2023-04-21T04:55:21;101952.16;;;6.83;90.25
51986;BME280;38002;53.296;6.600;2023-04-21T05:00:21;101956.59;;;6.84;90.83
51986;BME280;38002;53.296;6.600;2023-04-21T05:05:22;101959.94;;;6.88;90.84
51986;BME280;38002;53.296;6.600;2023-04-21T05:10:24;101964.25;;;6.90;90.81
51986;BME280;38002;53.296;6.600;2023-04-21T05:15:24;101967.47;;;6.95;90.54
51986;BME280;38002;53.296;6.600;2023-04-21T05:20:25;101968.97;;;6.99;90.72
51986;BME280;38002;53.296;6.600;2023-04-21T05:25:25;101971.25;;;7.05;90.46
51986;BME280;38002;53.296;6.600;2023-04-21T05:30:25;101971.78;;;7.10;90.51
51986;BME280;38002;53.296;6.600;2023-04-21T05:35:29;101964.94;;;7.17;89.83
51986;BME280;38002;53.296;6.600;2023-04-21T05:40:30;101977.03;;;7.24;90.15
51986;BME280;38002;53.296;6.600;2023-04-21T05:45:30;101970.91;;;7.34;90.12
51986;BME280;38002;53.296;6.600;2023-04-21T05:50:31;101969.50;;;7.41;90.00
51986;BME280;38002;53.296;6.600;2023-04-21T05:55:35;101965.25;;;7.49;90.18
51986;BME280;38002;53.296;6.600;2023-04-21T06:00:35;101960.75;;;7.61;89.68
51986;BME280;38002;53.296;6.600;2023-04-21T06:05:36;101976.03;;;7.73;89.65
51986;BME280;38002;53.296;6.600;2023-04-21T06:10:36;101973.25;;;7.86;90.04
51986;BME280;38002;53.296;6.600;2023-04-21T06:15:36;101965.94;;;7.99;90.07
51986;BME280;38002;53.296;6.600;2023-04-21T06:20:37;101965.63;;;8.14;89.61
51986;BME280;38002;53.296;6.600;2023-04-21T06:25:37;101955.22;;;8.32;89.97
51986;BME280;38002;53.296;6.600;2023-04-21T06:30:38;101953.03;;;8.48;89.38
51986;BME280;38002;53.296;6.600;2023-04-21T06:35:38;101951.41;;;8.68;88.72
51986;BME280;38002;53.296;6.600;2023-04-21T06:40:39;101948.94;;;8.87;89.23
51986;BME280;38002;53.296;6.600;2023-04-21T06:45:39;101949.16;;;9.06;88.66
51986;BME280;38002;53.296;6.600;2023-04-21T06:50:40;101951.97;;;9.27;88.57
51986;BME280;38002;53.296;6.600;2023-04-21T06:55:43;101949.31;;;9.48;88.17
51986;BME280;38002;53.296;6.600;2023-04-21T07:00:43;101935.41;;;9.73;88.38
51986;BME280;38002;53.296;6.600;2023-04-21T07:05:44;101929.84;;;9.95;87.68
51986;BME280;38002;53.296;6.600;2023-04-21T07:10:45;101922.31;;;10.20;86.83
51986;BME280;38002;53.296;6.600;2023-04-21T07:15:45;101927.47;;;10.43;85.54
51986;BME280;38002;53.296;6.600;2023-04-21T07:20:46;101921.00;;;10.65;85.71
51986;BME280;38002;53.296;6.600;2023-04-21T07:25:46;101927.81;;;10.90;85.33
51986;BME280;38002;53.296;6.600;2023-04-21T07:30:47;101923.44;;;11.08;84.33
51986;BME280;38002;53.296;6.600;2023-04-21T07:35:47;101910.84;;;11.26;83.88
51986;BME280;38002;53.296;6.600;2023-04-21T07:40:48;101923.50;;;11.47;83.47
51986;BME280;38002;53.296;6.600;2023-04-21T07:45:48;101933.25;;;11.68;83.10
51986;BME280;38002;53.296;6.600;2023-04-21T07:50:51;101917.91;;;11.87;82.38
51986;BME280;38002;53.296;6.600;2023-04-21T07:55:52;101903.84;;;12.10;82.25
51986;BME280;38002;53.296;6.600;2023-04-21T08:00:53;101914.41;;;12.33;81.77
51986;BME280;38002;53.296;6.600;2023-04-21T08:05:54;101929.41;;;12.56;81.64
51986;BME280;38002;53.296;6.600;2023-04-21T08:10:54;101918.38;;;12.85;80.97
51986;BME280;38002;53.296;6.600;2023-04-21T08:15:55;101906.03;;;13.08;80.67
51986;BME280;38002;53.296;6.600;2023-04-21T08:20:55;101916.09;;;13.35;80.11
51986;BME280;38002;53.296;6.600;2023-04-21T08:25:57;101901.66;;;13.60;79.88
51986;BME280;38002;53.296;6.600;2023-04-21T08:30:57;101896.38;;;13.76;79.12
51986;BME280;38002;53.296;6.600;2023-04-21T08:35:59;101891.03;;;13.92;77.37
51986;BME280;38002;53.296;6.600;2023-04-21T08:41:00;101885.25;;;14.21;77.64
51986;BME280;38002;53.296;6.600;2023-04-21T08:46:06;101887.16;;;14.46;76.18
51986;BME280;38002;53.296;6.600;2023-04-21T08:51:08;101884.56;;;14.71;77.39
51986;BME280;38002;53.296;6.600;2023-04-21T08:56:09;101882.78;;;14.95;77.22
51986;BME280;38002;53.296;6.600;2023-04-21T09:01:09;101887.13;;;15.14;75.63
51986;BME280;38002;53.296;6.600;2023-04-21T09:06:11;101873.78;;;15.27;75.24
51986;BME280;38002;53.296;6.600;2023-04-21T09:11:13;101876.56;;;15.43;74.54
51986;BME280;38002;53.296;6.600;2023-04-21T09:16:16;101862.91;;;15.68;74.65
51986;BME280;38002;53.296;6.600;2023-04-21T09:21:18;101860.66;;;16.04;74.62
51986;BME280;38002;53.296;6.600;2023-04-21T09:26:19;101858.72;;;16.37;66.56
51986;BME280;38002;53.296;6.600;2023-04-21T09:31:23;101866.56;;;16.56;72.58
51986;BME280;38002;53.296;6.600;2023-04-21T09:36:26;101851.75;;;16.73;72.42
51986;BME280;38002;53.296;6.600;2023-04-21T09:41:27;101854.53;;;17.04;72.30
51986;BME280;38002;53.296;6.600;2023-04-21T09:46:29;101842.59;;;17.19;70.19
51986;BME280;38002;53.296;6.600;2023-04-21T09:51:31;101841.75;;;17.42;70.66
51986;BME280;38002;53.296;6.600;2023-04-21T09:56:35;101825.06;;;17.66;68.28
51986;BME280;38002;53.296;6.600;2023-04-21T10:01:36;101825.78;;;17.83;69.66
51986;BME280;38002;53.296;6.600;2023-04-21T10:06:38;101816.94;;;18.10;69.64
51986;BME280;38002;53.296;6.600;2023-04-21T10:11:40;101825.69;;;18.28;67.30
51986;BME280;38002;53.296;6.600;2023-04-21T10:16:41;101812.56;;;18.30;67.07
51986;BME280;38002;53.296;6.600;2023-04-21T10:21:42;101809.03;;;18.51;67.00
51986;BME280;38002;53.296;6.600;2023-04-21T10:26:42;101810.28;;;18.78;66.95
51986;BME280;38002;53.296;6.600;2023-04-21T10:47:44;101778.28;;;19.55;60.02
51986;BME280;38002;53.296;6.600;2023-04-21T10:52:50;101765.00;;;19.65;63.85
51986;BME280;38002;53.296;6.600;2023-04-21T10:57:52;101757.44;;;19.74;63.35
51986;BME280;38002;53.296;6.600;2023-04-21T11:03:03;101747.34;;;19.87;56.94
51986;BME280;38002;53.296;6.600;2023-04-21T11:13:07;101732.72;;;19.93;61.53
51986;BME280;38002;53.296;6.600;2023-04-21T11:18:07;101710.97;;;20.12;61.13
51986;BME280;38002;53.296;6.600;2023-04-21T11:23:08;101699.56;;;20.28;59.88
51986;BME280;38002;53.296;6.600;2023-04-21T11:28:09;101699.91;;;20.46;59.96
51986;BME280;38002;53.296;6.600;2023-04-21T11:33:09;101691.66;;;20.59;58.85
51986;BME280;38002;53.296;6.600;2023-04-21T11:38:10;101684.19;;;20.47;57.72
51986;BME280;38002;53.296;6.600;2023-04-21T11:43:14;101676.56;;;20.55;57.93
51986;BME280;38002;53.296;6.600;2023-04-21T11:48:15;101673.13;;;20.40;57.06
51986;BME280;38002;53.296;6.600;2023-04-21T11:53:16;101669.31;;;20.48;57.17
51986;BME280;38002;53.296;6.600;2023-04-21T11:58:19;101665.97;;;20.65;55.38
51986;BME280;38002;53.296;6.600;2023-04-21T12:03:20;101658.09;;;20.75;55.32
51986;BME280;38002;53.296;6.600;2023-04-21T12:08:20;101663.84;;;20.67;56.01
51986;BME280;38002;53.296;6.600;2023-04-21T12:13:22;101660.06;;;20.75;55.02
51986;BME280;38002;53.296;6.600;2023-04-21T12:18:26;101647.47;;;20.72;53.02
51986;BME280;38002;53.296;6.600;2023-04-21T12:23:26;101643.66;;;20.80;53.29
51986;BME280;38002;53.296;6.600;2023-04-21T12:28:28;101638.59;;;20.97;53.57
51986;BME280;38002;53.296;6.600;2023-04-21T12:33:28;101633.53;;;21.20;50.13
51986;BME280;38002;53.296;6.600;2023-04-21T12:38:29;101623.28;;;21.40;53.12
51986;BME280;38002;53.296;6.600;2023-04-21T12:43:29;101626.06;;;21.27;52.07
51986;BME280;38002;53.296;6.600;2023-04-21T12:48:30;101625.38;;;20.86;52.37
51986;BME280;38002;53.296;6.600;2023-04-21T12:53:31;101625.81;;;20.89;52.26
51986;BME280;38002;53.296;6.600;2023-04-21T12:58:31;101622.88;;;21.17;51.77
51986;BME280;38002;53.296;6.600;2023-04-21T13:03:32;101613.28;;;21.52;51.92
51986;BME280;38002;53.296;6.600;2023-04-21T13:08:33;101601.09;;;21.73;51.02
51986;BME280;38002;53.296;6.600;2023-04-21T13:13:34;101590.50;;;21.57;51.00
51986;BME280;38002;53.296;6.600;2023-04-21T13:18:34;101575.19;;;21.41;51.19
51986;BME280;38002;53.296;6.600;2023-04-21T13:23:36;101581.59;;;21.28;50.40
51986;BME280;38002;53.296;6.600;2023-04-21T13:28:36;101578.16;;;20.80;50.50
51986;BME280;38002;53.296;6.600;2023-04-21T13:33:37;101559.22;;;20.97;51.48
51986;BME280;38002;53.296;6.600;2023-04-21T13:38:37;101550.31;;;21.35;50.37
51986;BME280;38002;53.296;6.600;2023-04-21T13:43:39;101546.94;;;21.13;49.94
51986;BME280;38002;53.296;6.600;2023-04-21T13:48:40;101549.03;;;20.65;49.95
51986;BME280;38002;53.296;6.600;2023-04-21T13:53:41;101534.78;;;20.48;49.93
51986;BME280;38002;53.296;6.600;2023-04-21T13:58:41;101518.22;;;20.74;50.00
51986;BME280;38002;53.296;6.600;2023-04-21T14:03:42;101517.56;;;20.99;50.20
51986;BME280;38002;53.296;6.600;2023-04-21T14:08:42;101505.22;;;21.14;50.14
51986;BME280;38002;53.296;6.600;2023-04-21T14:13:43;101501.13;;;21.43;49.51
51986;BME280;38002;53.296;6.600;2023-04-21T14:18:44;101495.78;;;21.48;49.28
51986;BME280;38002;53.296;6.600;2023-04-21T14:23:45;101471.78;;;21.29;49.27
51986;BME280;38002;53.296;6.600;2023-04-21T14:28:46;101470.47;;;21.38;49.42
51986;BME280;38002;53.296;6.600;2023-04-21T14:33:46;101464.50;;;21.41;49.33
51986;BME280;38002;53.296;6.600;2023-04-21T14:38:47;101467.91;;;21.43;48.94
51986;BME280;38002;53.296;6.600;2023-04-21T14:43:48;101466.91;;;21.24;48.93
51986;BME280;38002;53.296;6.600;2023-04-21T14:48:53;101458.63;;;20.98;48.51
51986;BME280;38002;53.296;6.600;2023-04-21T14:53:53;101460.16;;;20.74;48.44
51986;BME280;38002;53.296;6.600;2023-04-21T14:58:54;101448.03;;;20.75;48.77
51986;BME280;38002;53.296;6.600;2023-04-21T15:03:54;101429.09;;;20.86;49.46
51986;BME280;38002;53.296;6.600;2023-04-21T15:08:56;101421.19;;;21.09;49.07
51986;BME280;38002;53.296;6.600;2023-04-21T15:13:56;101422.06;;;20.96;48.08
51986;BME280;38002;53.296;6.600;2023-04-21T15:18:57;101410.22;;;20.56;47.74
51986;BME280;38002;53.296;6.600;2023-04-21T15:23:57;101404.69;;;20.36;47.26
51986;BME280;38002;53.296;6.600;2023-04-21T15:28:58;101406.78;;;20.08;47.80
51986;BME280;38002;53.296;6.600;2023-04-21T15:33:58;101396.34;;;19.77;47.97
51986;BME280;38002;53.296;6.600;2023-04-21T15:38:59;101382.53;;;19.71;47.57
51986;BME280;38002;53.296;6.600;2023-04-21T15:43:59;101379.13;;;19.69;47.28
51986;BME280;38002;53.296;6.600;2023-04-21T15:49:00;101373.63;;;19.75;47.53
51986;BME280;38002;53.296;6.600;2023-04-21T15:54:00;101371.50;;;19.77;47.35
51986;BME280;38002;53.296;6.600;2023-04-21T15:59:01;101360.03;;;19.74;47.39
51986;BME280;38002;53.296;6.600;2023-04-21T16:04:02;101354.50;;;19.74;47.18
51986;BME280;38002;53.296;6.600;2023-04-21T16:09:04;101339.63;;;19.68;45.66
51986;BME280;38002;53.296;6.600;2023-04-21T16:14:04;101339.22;;;19.65;46.94
51986;BME280;38002;53.296;6.600;2023-04-21T16:19:05;101327.28;;;19.51;47.31
51986;BME280;38002;53.296;6.600;2023-04-21T16:24:06;101322.81;;;19.43;47.43
51986;BME280;38002;53.296;6.600;2023-04-21T16:29:07;101326.38;;;19.31;46.77
51986;BME280;38002;53.296;6.600;2023-04-21T16:34:08;101319.16;;;19.23;47.31
51986;BME280;38002;53.296;6.600;2023-04-21T16:39:08;101306.78;;;19.13;47.67
51986;BME280;38002;53.296;6.600;2023-04-21T16:44:09;101302.94;;;19.00;48.11
51986;BME280;38002;53.296;6.600;2023-04-21T16:49:09;101294.00;;;18.85;48.35
51986;BME280;38002;53.296;6.600;2023-04-21T16:54:11;101289.25;;;18.73;48.21
51986;BME280;38002;53.296;6.600;2023-04-21T16:59:13;101285.78;;;18.57;48.02
51986;BME280;38002;53.296;6.600;2023-04-21T17:04:13;101283.34;;;18.41;48.39
51986;BME280;38002;53.296;6.600;2023-04-21T17:09:15;101280.06;;;18.25;49.14
51986;BME280;38002;53.296;6.600;2023-04-21T17:14:15;101278.28;;;18.10;49.38
51986;BME280;38002;53.296;6.600;2023-04-21T17:19:16;101278.00;;;17.99;49.60
51986;BME280;38002;53.296;6.600;2023-04-21T17:24:16;101283.38;;;17.86;49.94
51986;BME280;38002;53.296;6.600;2023-04-21T17:29:17;101283.06;;;17.74;50.34
51986;BME280;38002;53.296;6.600;2023-04-21T17:34:17;101279.94;;;17.56;50.74
51986;BME280;38002;53.296;6.600;2023-04-21T17:39:18;101268.81;;;17.43;50.96
51986;BME280;38002;53.296;6.600;2023-04-21T17:44:18;101277.56;;;17.32;51.18
51986;BME280;38002;53.296;6.600;2023-04-21T17:49:19;101283.59;;;17.20;51.39
51986;BME280;38002;53.296;6.600;2023-04-21T17:54:19;101281.53;;;17.08;51.61
51986;BME280;38002;53.296;6.600;2023-04-21T17:59:20;101277.97;;;16.93;51.95
51986;BME280;38002;53.296;6.600;2023-04-21T18:04:20;101277.34;;;16.76;52.43
51986;BME280;38002;53.296;6.600;2023-04-21T18:09:23;101268.53;;;16.66;52.97
51986;BME280;38002;53.296;6.600;2023-04-21T18:14:24;101276.03;;;16.57;53.08
51986;BME280;38002;53.296;6.600;2023-04-21T18:19:25;101265.34;;;16.48;53.14
51986;BME280;38002;53.296;6.600;2023-04-21T18:24:25;101276.50;;;16.31;53.79
51986;BME280;38002;53.296;6.600;2023-04-21T18:29:26;101271.19;;;16.15;53.77
51986;BME280;38002;53.296;6.600;2023-04-21T18:34:26;101264.84;;;16.00;54.56
51986;BME280;38002;53.296;6.600;2023-04-21T18:39:27;101260.38;;;15.84;54.63
51986;BME280;38002;53.296;6.600;2023-04-21T18:44:27;101259.28;;;15.71;54.98
51986;BME280;38002;53.296;6.600;2023-04-21T18:49:29;101265.06;;;15.61;54.99
51986;BME280;38002;53.296;6.600;2023-04-21T18:54:29;101252.63;;;15.51;55.53
51986;BME280;38002;53.296;6.600;2023-04-21T18:59:30;101256.13;;;15.36;55.73
51986;BME280;38002;53.296;6.600;2023-04-21T19:04:30;101270.16;;;15.19;55.79
51986;BME280;38002;53.296;6.600;2023-04-21T19:09:31;101263.59;;;15.05;56.00
51986;BME280;38002;53.296;6.600;2023-04-21T19:14:31;101267.94;;;14.91;56.40
51986;BME280;38002;53.296;6.600;2023-04-21T19:19:32;101267.53;;;14.72;56.85
51986;BME280;38002;53.296;6.600;2023-04-21T19:24:32;101274.63;;;14.58;57.32
51986;BME280;38002;53.296;6.600;2023-04-21T19:29:33;101268.34;;;14.41;57.87
51986;BME280;38002;53.296;6.600;2023-04-21T19:34:35;101274.88;;;14.32;58.11
51986;BME280;38002;53.296;6.600;2023-04-21T19:39:36;101266.38;;;14.19;58.80
51986;BME280;38002;53.296;6.600;2023-04-21T19:44:37;101261.97;;;14.02;59.02
51986;BME280;38002;53.296;6.600;2023-04-21T19:49:38;101270.19;;;13.86;59.29
51986;BME280;38002;53.296;6.600;2023-04-21T19:54:38;101268.19;;;13.72;60.11
51986;BME280;38002;53.296;6.600;2023-04-21T19:59:39;101273.13;;;13.60;60.48
51986;BME280;38002;53.296;6.600;2023-04-21T20:04:40;101261.53;;;13.50;60.33
51986;BME280;38002;53.296;6.600;2023-04-21T20:09:41;101273.28;;;13.42;66.32
51986;BME280;38002;53.296;6.600;2023-04-21T20:14:42;101259.63;;;13.42;61.59
51986;BME280;38002;53.296;6.600;2023-04-21T20:19:42;101264.44;;;13.40;61.82
51986;BME280;38002;53.296;6.600;2023-04-21T20:24:42;101266.16;;;13.41;61.93
51986;BME280;38002;53.296;6.600;2023-04-21T20:29:43;101254.38;;;13.41;61.84
51986;BME280;38002;53.296;6.600;2023-04-21T20:34:43;101245.13;;;13.42;62.10
51986;BME280;38002;53.296;6.600;2023-04-21T20:39:44;101244.44;;;13.40;62.99
51986;BME280;38002;53.296;6.600;2023-04-21T20:44:46;101237.63;;;13.36;63.25
51986;BME280;38002;53.296;6.600;2023-04-21T20:49:46;101238.47;;;13.36;63.47
51986;BME280;38002;53.296;6.600;2023-04-21T20:54:46;101251.94;;;13.38;63.31
51986;BME280;38002;53.296;6.600;2023-04-21T20:59:49;101336.47;;;13.39;62.97
51986;BME280;38002;53.296;6.600;2023-04-21T21:04:50;101322.16;;;13.37;61.91
51986;BME280;38002;53.296;6.600;2023-04-21T21:09:50;101307.47;;;13.62;60.18
51986;BME280;38002;53.296;6.600;2023-04-21T21:14:51;101274.25;;;13.98;60.28
51986;BME280;38002;53.296;6.600;2023-04-21T21:19:51;101282.47;;;14.06;60.08
51986;BME280;38002;53.296;6.600;2023-04-21T21:24:52;101286.03;;;14.15;59.90
51986;BME280;38002;53.296;6.600;2023-04-21T21:29:52;101267.41;;;14.18;59.92
51986;BME280;38002;53.296;6.600;2023-04-21T21:34:53;101255.97;;;14.15;60.19
51986;BME280;38002;53.296;6.600;2023-04-21T21:39:53;101242.13;;;14.08;61.34
51986;BME280;38002;53.296;6.600;2023-04-21T21:44:54;101236.84;;;13.98;61.01
51986;BME280;38002;53.296;6.600;2023-04-21T21:49:55;101224.56;;;13.86;62.03
51986;BME280;38002;53.296;6.600;2023-04-21T21:54:57;101220.66;;;13.73;62.38
51986;BME280;38002;53.296;6.600;2023-04-21T21:59:58;101211.66;;;13.56;62.66
51986;BME280;38002;53.296;6.600;2023-04-21T22:05:01;101204.34;;;13.40;62.78
51986;BME280;38002;53.296;6.600;2023-04-21T22:10:04;101204.34;;;13.32;63.22
51986;BME280;38002;53.296;6.600;2023-04-21T22:15:05;101201.28;;;13.19;63.25
51986;BME280;38002;53.296;6.600;2023-04-21T22:20:07;101209.75;;;13.08;63.43
51986;BME280;38002;53.296;6.600;2023-04-21T22:25:08;101199.03;;;12.98;63.73
51986;BME280;38002;53.296;6.600;2023-04-21T22:30:10;101214.19;;;13.01;63.62
51986;BME280;38002;53.296;6.600;2023-04-21T22:35:10;101237.03;;;12.92;64.52
51986;BME280;38002;53.296;6.600;2023-04-21T22:40:11;101233.09;;;12.78;64.26
51986;BME280;38002;53.296;6.600;2023-04-21T22:45:12;101229.16;;;12.72;64.06
51986;BME280;38002;53.296;6.600;2023-04-21T22:50:12;101227.09;;;12.66;64.70
51986;BME280;38002;53.296;6.600;2023-04-21T22:55:14;101221.44;;;12.60;64.86
51986;BME280;38002;53.296;6.600;2023-04-21T23:00:14;101226.38;;;12.56;64.99
51986;BME280;38002;53.296;6.600;2023-04-21T23:05:15;101225.00;;;12.52;64.65
51986;BME280;38002;53.296;6.600;2023-04-21T23:10:15;101243.25;;;12.52;64.99
51986;BME280;38002;53.296;6.600;2023-04-21T23:15:16;101258.06;;;12.49;65.05
51986;BME280;38002;53.296;6.600;2023-04-21T23:20:16;101285.69;;;12.46;65.28
51986;BME280;38002;53.296;6.600;2023-04-21T23:25:17;101283.97;;;12.45;65.16
51986;BME280;38002;53.296;6.600;2023-04-21T23:30:17;101296.56;;;12.38;65.91
51986;BME280;38002;53.296;6.600;2023-04-21T23:35:18;101283.72;;;12.31;66.17
51986;BME280;38002;53.296;6.600;2023-04-21T23:40:18;101279.09;;;12.23;66.66
51986;BME280;38002;53.296;6.600;2023-04-21T23:45:19;101253.50;;;12.16;67.49
51986;BME280;38002;53.296;6.600;2023-04-21T23:50:20;101237.13;;;12.08;67.48
51986;BME280;38002;53.296;6.600;2023-04-21T23:55:20;101237.13;;;12.08;67.57
